Time;durP1;ratioP1;P1;durP2;ratioP2;P2;SDS_P1;SDS_P2;PMS_P1;PMS_P2;Temp;Humidity;BMP_temperature;BMP_pressure;BME280_temperature;BME280_humidity;BME280_pressure;Samples;Min_cycle;Max_cycle;Signal;HPM_P1;HPM_P2
2022/06/16 00:00:38;;;;;;;6.13;4.97;;;22.60;91.00;;;22.80;100.00;100375.53;5026466;28;20511;-77
2022/06/16 00:03:08;;;;;;;6.00;5.32;;;22.60;91.10;;;22.83;100.00;100374.44;4994472;28;20081;-77
2022/06/16 00:05:39;;;;;;;7.63;4.93;;;22.60;91.10;;;22.75;100.00;100368.81;5026928;28;20052;-79
2022/06/16 00:08:09;;;;;;;6.80;5.38;;;22.50;91.10;;;22.74;100.00;100367.94;5026700;28;20038;-77
2022/06/16 00:10:37;;;;;;;7.03;6.03;;;22.50;91.10;;;22.62;100.00;100372.41;5009750;28;20046;-77
2022/06/16 00:13:05;;;;;;;6.28;5.13;;;22.40;91.30;;;22.30;100.00;100364.91;5026732;28;20687;-77
2022/06/16 00:15:32;;;;;;;6.70;5.03;;;22.30;91.70;;;22.25;100.00;100367.09;5026649;28;20053;-77
2022/06/16 00:17:59;;;;;;;6.60;5.80;;;22.20;91.80;;;22.16;100.00;100363.22;5026934;28;20068;-77
2022/06/16 00:20:26;;;;;;;5.80;5.25;;;22.10;91.90;;;22.15;100.00;100363.34;5028695;28;20041;-77
2022/06/16 00:22:53;;;;;;;6.75;4.93;;;22.00;92.00;;;22.09;100.00;100368.19;5045701;28;20122;-77
2022/06/16 00:25:21;;;;;;;8.65;5.32;;;22.00;92.20;;;22.08;100.00;100368.31;5033588;28;20479;-77
2022/06/16 00:27:48;;;;;;;5.90;5.30;;;21.90;92.10;;;22.07;100.00;100367.44;5052225;28;20041;-77
2022/06/16 00:30:15;;;;;;;6.30;5.00;;;21.80;92.20;;;22.16;100.00;100357.03;5042454;28;20037;-77
2022/06/16 00:32:42;;;;;;;5.60;4.90;;;21.80;92.30;;;22.07;100.00;100355.88;5027025;28;20140;-77
2022/06/16 00:35:12;;;;;;;8.40;5.32;;;21.30;92.30;;;21.91;100.00;100359.66;5042579;28;20063;-77
2022/06/16 00:37:40;;;;;;;7.67;5.60;;;21.80;92.50;;;21.88;100.00;100362.56;5042986;28;20399;-77
2022/06/16 00:40:09;;;;;;;7.28;5.10;;;21.80;92.60;;;21.82;100.00;100365.66;5025139;28;20631;-77
2022/06/16 00:42:37;;;;;;;7.70;5.32;;;21.70;92.60;;;21.74;100.00;100368.06;5026626;28;20045;-77
2022/06/16 00:45:43;;;;;;;6.95;4.97;;;21.60;92.70;;;21.61;100.00;100376.06;5027121;28;20132;-78
2022/06/16 00:48:51;;;;;;;7.10;5.85;;;21.50;92.90;;;21.47;100.00;100369.88;5028264;28;20132;-77
2022/06/16 00:51:33;;;;;;;6.93;4.93;;;21.40;93.10;;;21.46;100.00;100368.13;5025490;28;20422;-77
2022/06/16 00:54:19;;;;;;;5.65;5.07;;;21.30;93.10;;;21.28;100.00;100370.28;5040579;28;20046;-77
2022/06/16 00:57:05;;;;;;;7.72;4.82;;;21.20;93.60;;;21.32;100.00;100369.09;5027325;28;20049;-79
2022/06/16 00:59:36;;;;;;;6.53;4.82;;;21.20;93.60;;;21.24;100.00;100369.63;4970142;28;20075;-79
2022/06/16 01:02:09;;;;;;;6.72;5.45;;;21.10;93.70;;;21.19;100.00;100362.88;4935183;29;20053;-79
2022/06/16 01:04:54;;;;;;;7.63;5.82;;;21.10;93.80;;;21.21;100.00;100361.84;4936094;29;20051;-81
2022/06/16 01:07:40;;;;;;;9.55;5.55;;;21.00;93.70;;;21.17;100.00;100362.16;4933674;29;20098;-79
2022/06/16 01:10:19;;;;;;;9.35;5.40;;;21.00;94.00;;;21.24;100.00;100356.25;4949854;29;20051;-79
2022/06/16 01:16:33;;;;;;;6.90;5.65;;;21.00;93.60;;;21.49;100.00;100351.00;4949416;29;20047;-82
2022/06/16 01:19:43;;;;;;;11.57;5.47;;;21.00;93.90;;;21.60;100.00;100345.75;4932963;29;20130;-81
2022/06/16 01:22:38;;;;;;;5.78;5.05;;;20.90;93.40;;;21.58;100.00;100337.00;4951516;29;20043;-79
2022/06/16 01:25:35;;;;;;;6.72;5.57;;;21.20;94.10;;;21.49;100.00;100335.81;4952104;29;20050;-79
2022/06/16 01:28:53;;;;;;;7.15;5.28;;;21.10;93.80;;;21.35;100.00;100330.59;4951046;29;20082;-79
2022/06/16 01:31:31;;;;;;;6.47;5.78;;;21.10;93.70;;;21.32;100.00;100336.16;4948661;28;20059;-80
2022/06/16 01:34:26;;;;;;;8.88;5.90;;;21.10;94.00;;;21.16;100.00;100333.69;4956260;28;20790;-81
2022/06/16 01:37:05;;;;;;;5.90;5.40;;;21.00;94.40;;;20.99;100.00;100334.84;4993735;28;20186;-80
2022/06/16 01:40:01;;;;;;;8.65;6.20;;;21.00;94.10;;;21.17;100.00;100352.31;5013023;28;20116;-79
2022/06/16 01:42:54;;;;;;;8.05;7.10;;;20.90;95.30;;;21.10;100.00;100342.97;4995002;28;20038;-79
2022/06/16 01:46:04;;;;;;;6.88;5.68;;;20.80;95.40;;;21.15;100.00;100340.88;4994020;28;20043;-81
2022/06/16 01:48:36;;;;;;;6.50;5.82;;;20.80;95.40;;;21.10;100.00;100335.81;4968343;28;20134;-79
2022/06/16 01:51:19;;;;;;;6.80;5.85;;;20.80;95.20;;;21.11;100.00;100345.56;4934636;29;20052;-79
2022/06/16 01:53:56;;;;;;;8.25;5.55;;;20.80;94.90;;;21.02;100.00;100343.50;4934972;29;20107;-81
2022/06/16 01:57:08;;;;;;;7.50;5.55;;;20.80;94.50;;;20.99;100.00;100340.19;4935315;29;20556;-80
2022/06/16 01:59:48;;;;;;;7.65;5.75;;;20.70;94.50;;;20.65;100.00;100340.63;4934080;29;20456;-80
2022/06/16 02:02:20;;;;;;;6.97;5.82;;;20.60;94.60;;;20.52;100.00;100344.13;4950906;28;20048;-79
2022/06/16 02:05:00;;;;;;;6.57;5.53;;;20.50;94.80;;;20.37;100.00;100329.97;4950976;29;20139;-81
2022/06/16 02:07:38;;;;;;;6.15;5.55;;;20.40;95.00;;;20.32;100.00;100332.06;4935813;29;20044;-79
2022/06/16 02:10:18;;;;;;;5.63;5.13;;;20.30;95.60;;;20.27;100.00;100332.38;4943418;28;20133;-78
2022/06/16 02:12:57;;;;;;;8.30;5.32;;;20.20;95.50;;;20.29;100.00;100331.41;4957105;28;20054;-78
2022/06/16 02:16:06;;;;;;;5.78;5.10;;;20.10;95.60;;;20.21;100.00;100330.09;4943895;28;20061;-81
2022/06/16 02:18:54;;;;;;;6.32;5.47;;;20.10;95.70;;;20.26;100.00;100352.03;4955539;28;20050;-78
2022/06/16 02:21:39;;;;;;;7.55;5.32;;;20.10;95.80;;;20.25;100.00;100338.78;4971079;28;20099;-78
2022/06/16 02:24:14;;;;;;;7.80;5.82;;;20.00;95.80;;;20.07;100.00;100347.03;5016098;28;20767;-79
2022/06/16 02:26:44;;;;;;;7.72;6.07;;;20.20;96.00;;;19.94;100.00;100346.13;5032865;28;20049;-79
2022/06/16 02:29:37;;;;;;;9.00;6.05;;;20.00;96.10;;;20.00;100.00;100350.22;5032173;28;20091;-79
2022/06/16 02:33:02;;;;;;;7.53;5.82;;;19.80;96.20;;;19.86;100.00;100357.25;5032771;28;20052;-80
2022/06/16 02:36:18;;;;;;;8.00;5.93;;;19.80;96.30;;;19.54;100.00;100355.63;5016517;28;20587;-80
2022/06/16 02:39:25;;;;;;;9.40;5.97;;;19.70;96.40;;;19.52;100.00;100362.03;5000032;28;20050;-80
2022/06/16 02:43:02;;;;;;;9.20;5.97;;;19.60;96.60;;;19.60;100.00;100365.06;4995441;28;20068;-81
2022/06/16 02:45:58;;;;;;;6.05;5.15;;;19.50;96.70;;;19.61;100.00;100350.78;4977080;28;20053;-78
2022/06/16 02:49:06;;;;;;;7.55;5.35;;;19.40;96.70;;;19.54;100.00;100352.97;4995877;28;20084;-79
2022/06/16 02:51:50;;;;;;;8.15;6.50;;;19.40;96.80;;;19.36;100.00;100354.97;5010118;28;20042;-78
2022/06/16 02:54:33;;;;;;;6.95;5.97;;;19.30;96.90;;;19.19;100.00;100350.66;4983420;28;20145;-78
2022/06/16 02:57:12;;;;;;;7.35;6.68;;;19.20;97.00;;;19.20;100.00;100359.50;4975245;28;20081;-78
2022/06/16 02:59:57;;;;;;;7.07;6.30;;;19.20;97.20;;;19.21;100.00;100359.41;4972250;28;20077;-79
2022/06/16 03:02:26;;;;;;;6.88;6.05;;;19.10;97.30;;;19.17;100.00;100354.34;4953450;28;20061;-79
2022/06/16 03:05:00;;;;;;;8.13;6.43;;;19.60;97.40;;;19.34;100.00;100366.69;4984779;28;20160;-79
2022/06/16 03:07:34;;;;;;;7.10;5.45;;;19.10;97.10;;;19.34;100.00;100354.19;4985828;28;20047;-80
2022/06/16 03:13:10;;;;;;;7.25;5.38;;;19.10;97.00;;;19.28;100.00;100375.91;4974376;28;20047;-81
2022/06/16 03:15:51;;;;;;;6.65;5.30;;;19.10;97.10;;;19.23;100.00;100375.34;4985740;28;20092;-79
2022/06/16 03:18:20;;;;;;;6.13;5.30;;;19.10;97.00;;;19.22;100.00;100377.13;4986486;28;20068;-80
2022/06/16 03:20:49;;;;;;;6.38;5.78;;;19.10;97.00;;;19.12;100.00;100370.63;5009556;28;20534;-79
2022/06/16 03:23:19;;;;;;;5.43;4.93;;;19.10;97.20;;;19.13;100.00;100377.72;5011032;28;20157;-78
2022/06/16 03:25:48;;;;;;;7.57;6.35;;;19.10;97.10;;;19.20;100.00;100380.84;4980834;28;20050;-79
2022/06/16 03:28:15;;;;;;;8.45;5.45;;;19.10;97.00;;;19.09;100.00;100377.03;4995006;28;20120;-80
2022/06/16 03:30:43;;;;;;;5.50;5.00;;;19.00;97.00;;;19.06;100.00;100381.66;4998143;28;20059;-79
2022/06/16 03:33:14;;;;;;;7.70;5.97;;;19.00;97.10;;;18.92;100.00;100377.97;5012893;28;20053;-79
2022/06/16 03:35:43;;;;;;;7.63;6.30;;;19.00;97.30;;;18.95;100.00;100380.47;4997792;28;20541;-79
2022/06/16 03:40:42;;;;;;;9.68;6.20;;;18.90;97.20;;;19.03;100.00;100384.53;5013287;28;20041;-78
2022/06/16 03:43:10;;;;;;;8.10;6.35;;;18.90;97.30;;;19.10;100.00;100396.53;4996917;28;20156;-79
2022/06/16 03:45:38;;;;;;;6.35;5.70;;;18.90;97.30;;;19.06;100.00;100403.00;5013113;28;20037;-79
2022/06/16 03:48:06;;;;;;;6.85;5.95;;;18.90;97.10;;;19.15;100.00;100402.47;4997290;28;20055;-79
2022/06/16 03:50:37;;;;;;;6.28;5.63;;;18.90;96.90;;;19.25;100.00;100406.28;4997041;28;20652;-79
2022/06/16 03:53:06;;;;;;;6.72;6.03;;;19.00;96.60;;;19.29;100.00;100408.78;4997689;28;20049;-81
2022/06/16 03:55:39;;;;;;;7.72;6.65;;;19.00;96.70;;;19.26;100.00;100416.00;4995827;28;20050;-79
2022/06/16 03:58:06;;;;;;;7.53;5.65;;;19.00;96.60;;;19.30;100.00;100411.34;5010839;28;20057;-79
2022/06/16 04:00:33;;;;;;;6.85;6.07;;;19.10;96.70;;;19.32;100.00;100412.09;5008574;28;20045;-79
2022/06/16 04:05:54;;;;;;;7.53;5.93;;;19.10;96.80;;;19.20;100.00;100410.16;5011271;28;20045;-80
2022/06/16 04:08:22;;;;;;;6.95;5.65;;;19.10;96.70;;;19.34;100.00;100412.03;5010527;28;20049;-79
2022/06/16 04:10:53;;;;;;;6.63;5.63;;;19.10;96.70;;;19.31;100.00;100415.72;5009473;28;20056;-78
2022/06/16 04:13:22;;;;;;;8.48;6.72;;;19.10;97.00;;;19.23;100.00;100423.34;5009727;28;20458;-78
2022/06/16 04:15:54;;;;;;;6.82;5.38;;;19.10;97.20;;;19.25;100.00;100418.78;5011351;28;20056;-79
2022/06/16 04:18:22;;;;;;;5.97;5.40;;;19.10;97.20;;;19.35;100.00;100427.09;5010935;28;20537;-78
2022/06/16 04:20:50;;;;;;;8.20;5.90;;;19.10;97.10;;;19.28;100.00;100429.25;5009708;28;20069;-79
2022/06/16 04:23:48;;;;;;;6.10;5.50;;;19.20;97.50;;;19.38;100.00;100429.56;5014771;28;20050;-79
2022/06/16 04:26:18;;;;;;;6.75;5.80;;;19.20;97.40;;;19.44;100.00;100417.66;5010756;28;20046;-79
2022/06/16 04:28:50;;;;;;;7.20;6.57;;;19.20;97.30;;;19.63;100.00;100438.75;5025698;28;20744;-78
2022/06/16 04:31:23;;;;;;;9.98;6.88;;;19.30;99.00;;;19.58;100.00;100430.16;5008977;28;20042;-78
2022/06/16 04:33:54;;;;;;;11.07;7.60;;;19.30;98.80;;;19.63;100.00;100434.25;5009945;28;20097;-76
2022/06/16 04:36:21;;;;;;;7.00;6.30;;;19.30;99.00;;;19.74;100.00;100441.59;5005671;28;20061;-76
2022/06/16 04:39:00;;;;;;;6.72;6.07;;;19.40;98.30;;;19.72;100.00;100445.34;5009311;28;20049;-76
2022/06/16 04:41:28;;;;;;;9.50;5.85;;;19.40;98.00;;;19.60;100.00;100447.78;4991890;28;20521;-75
2022/06/16 04:43:56;;;;;;;6.80;5.50;;;19.70;98.20;;;19.76;100.00;100450.41;5007524;28;20124;-76
2022/06/16 04:46:27;;;;;;;6.53;5.50;;;19.40;97.80;;;19.78;100.00;100459.16;5010780;28;20076;-76
2022/06/16 04:48:54;;;;;;;7.97;5.75;;;19.50;98.00;;;19.88;100.00;100459.47;5026275;28;20076;-75
2022/06/16 04:51:24;;;;;;;9.25;6.47;;;19.60;98.00;;;20.00;100.00;100465.03;5025864;28;20046;-75
2022/06/16 04:53:56;;;;;;;8.63;6.38;;;19.60;97.80;;;19.97;100.00;100461.56;5026089;28;20050;-74
2022/06/16 04:56:41;;;;;;;7.50;5.80;;;19.70;97.90;;;20.07;100.00;100471.69;5040205;28;20410;-74
2022/06/16 04:59:26;;;;;;;7.82;6.07;;;19.80;97.80;;;20.09;100.00;100480.47;5027046;28;20057;-74
2022/06/16 05:02:16;;;;;;;12.32;8.23;;;19.80;97.80;;;20.21;100.00;100477.03;5025533;28;20056;-73
2022/06/16 05:04:58;;;;;;;9.77;8.48;;;19.80;97.90;;;20.30;100.00;100474.75;5026033;28;20049;-73
2022/06/16 05:07:49;;;;;;;13.90;9.48;;;19.90;97.90;;;20.42;100.00;100459.75;5027665;28;20045;-73
2022/06/16 05:10:39;;;;;;;;;;;20.00;97.80;;;20.44;100.00;100452.47;5027975;28;20145;-72
2022/06/16 05:13:18;;;;;;;14.02;9.63;;;20.10;97.90;;;20.45;100.00;100454.19;5031969;28;19928;-73
2022/06/16 05:16:05;;;;;;;12.27;11.07;;;20.20;98.30;;;20.17;100.00;100453.28;5030586;28;20057;-73
2022/06/16 05:18:59;;;;;;;13.82;11.55;;;20.20;98.60;;;20.09;100.00;100457.28;5011667;28;20522;-73
2022/06/16 05:21:41;;;;;;;12.35;11.15;;;20.00;98.70;;;20.08;100.00;100460.06;5025186;28;20573;-74
2022/06/16 05:24:27;;;;;;;12.95;11.48;;;20.00;98.60;;;20.21;100.00;100466.34;5044570;28;20394;-73
2022/06/16 05:27:31;;;;;;;10.98;9.15;;;20.00;98.80;;;20.26;100.00;100479.41;5042039;28;20044;-72
2022/06/16 05:30:18;;;;;;;10.18;9.15;;;20.00;99.20;;;20.36;100.00;100483.19;5026289;28;20057;-73
2022/06/16 05:33:09;;;;;;;12.30;10.45;;;20.10;99.10;;;20.42;100.00;100484.63;5043336;28;20053;-72
2022/06/16 05:36:02;;;;;;;10.85;8.98;;;20.10;99.10;;;20.44;100.00;100479.19;5031606;28;20072;-74
2022/06/16 05:39:07;;;;;;;9.65;8.65;;;20.10;98.70;;;20.50;100.00;100474.31;4988944;28;20050;-73
2022/06/16 05:41:44;;;;;;;14.65;8.65;;;20.20;98.50;;;20.53;100.00;100482.13;4974777;28;20034;-73
2022/06/16 05:44:38;;;;;;;9.57;7.95;;;20.20;98.40;;;20.77;100.00;100497.56;5017106;28;20053;-72
2022/06/16 05:47:23;;;;;;;9.30;8.13;;;20.30;98.00;;;20.98;100.00;100505.16;5030875;28;20052;-73
2022/06/16 05:49:54;;;;;;;8.10;6.95;;;20.50;97.70;;;21.12;100.00;100512.25;5029632;28;20522;-73
2022/06/16 05:52:22;;;;;;;10.68;7.95;;;20.60;97.60;;;21.24;100.00;100511.44;5042226;28;20095;-73
2022/06/16 05:55:06;;;;;;;10.43;6.97;;;20.70;97.30;;;21.44;100.00;100517.25;5029592;28;20163;-73
2022/06/16 05:57:33;;;;;;;9.38;6.82;;;20.90;96.70;;;21.59;100.00;100520.75;5040170;28;20113;-73
2022/06/16 06:00:00;;;;;;;9.13;5.90;;;21.00;95.90;;;21.72;100.00;100520.78;5037641;28;20545;-73
2022/06/16 06:02:30;;;;;;;6.03;5.30;;;21.20;95.50;;;21.80;100.00;100526.47;5014338;28;20037;-74
2022/06/16 06:05:01;;;;;;;5.90;4.72;;;21.30;94.90;;;21.90;100.00;100532.03;5013376;28;20052;-74
2022/06/16 06:16:25;;;;;;;11.43;4.88;;;21.40;94.50;;;21.99;100.00;100529.69;5029184;28;20141;-73
2022/06/16 06:18:37;;;;;;;6.47;4.40;;;21.80;93.50;;;22.25;100.00;100543.94;5029293;28;20049;-74
2022/06/16 06:21:04;;;;;;;5.40;4.68;;;21.90;93.40;;;22.32;100.00;100545.22;5011767;28;20057;-73
2022/06/16 06:23:31;;;;;;;7.53;3.72;;;21.90;93.20;;;22.33;100.00;100541.56;5029324;28;20065;-74
2022/06/16 06:25:58;;;;;;;7.72;4.00;;;21.90;93.10;;;22.36;100.00;100545.84;5012356;28;20037;-74
2022/06/16 06:28:25;;;;;;;6.53;4.07;;;22.00;93.10;;;22.45;100.00;100553.22;5028746;28;20045;-74
2022/06/16 06:30:52;;;;;;;8.88;4.13;;;22.00;93.00;;;22.41;100.00;100557.09;5028201;28;20049;-74
2022/06/16 06:33:19;;;;;;;6.80;3.97;;;22.00;92.70;;;22.45;100.00;100558.59;5028842;28;20059;-74
2022/06/16 06:35:47;;;;;;;6.45;4.50;;;22.10;92.60;;;22.48;100.00;100558.44;5012350;28;20095;-73
2022/06/16 06:38:15;;;;;;;7.93;3.92;;;22.10;92.30;;;22.45;100.00;100563.94;5028657;28;20049;-73
2022/06/16 06:40:42;;;;;;;7.97;4.63;;;22.10;92.10;;;22.47;98.83;100569.22;5028005;28;20609;-73
2022/06/16 06:43:09;;;;;;;11.60;3.90;;;22.10;91.80;;;22.47;99.29;100571.91;5045319;28;20120;-74
2022/06/16 06:45:41;;;;;;;9.38;3.72;;;22.20;91.90;;;22.46;99.16;100572.88;5028489;28;20049;-73
2022/06/16 06:48:10;;;;;;;7.28;3.47;;;22.10;91.80;;;22.50;97.41;100567.22;5026084;28;20037;-73
2022/06/16 06:50:40;;;;;;;5.03;3.25;;;22.10;91.60;;;22.58;98.39;100572.03;5010006;28;20407;-74
2022/06/16 06:53:09;;;;;;;5.32;2.88;;;22.10;91.70;;;22.65;96.37;100564.41;5029770;28;20052;-73
2022/06/16 06:55:45;;;;;;;6.07;3.30;;;22.20;91.50;;;22.79;93.98;100566.94;5045082;28;20046;-74
2022/06/16 06:58:23;;;;;;;4.88;3.65;;;22.30;91.30;;;22.89;94.21;100577.84;5044812;28;20049;-74
2022/06/16 07:00:53;;;;;;;4.22;3.15;;;22.40;91.30;;;22.90;90.17;100574.19;5035036;28;20034;-74
2022/06/16 07:03:21;;;;;;;6.53;3.70;;;22.50;90.80;;;22.95;88.17;100580.06;5037648;28;20103;-73
2022/06/16 07:05:48;;;;;;;5.25;3.42;;;22.50;90.50;;;22.98;87.32;100572.78;5027577;28;20431;-74
2022/06/16 07:08:16;;;;;;;10.77;4.03;;;22.60;90.40;;;23.04;85.93;100575.84;5027884;28;20886;-74
2022/06/16 07:10:43;;;;;;;4.97;3.28;;;22.60;90.20;;;23.12;83.60;100577.97;5044241;28;20121;-74
2022/06/16 07:13:14;;;;;;;8.13;3.70;;;22.70;89.90;;;23.21;84.36;100582.69;5023993;28;20034;-74
2022/06/16 07:15:42;;;;;;;6.10;3.22;;;22.70;90.00;;;23.26;81.68;100590.41;5009267;28;20773;-73
2022/06/16 07:18:09;;;;;;;4.60;3.20;;;22.80;89.40;;;23.31;82.11;100603.47;5007748;28;20387;-74
2022/06/16 07:20:36;;;;;;;9.10;3.20;;;22.80;89.30;;;23.34;81.28;100611.31;4999353;28;20042;-73
2022/06/16 07:23:04;;;;;;;6.60;3.60;;;22.90;89.00;;;23.44;83.24;100603.44;5027250;28;20041;-74
2022/06/16 07:25:31;;;;;;;7.13;3.50;;;23.00;89.40;;;23.50;81.60;100603.84;5043986;28;20052;-74
2022/06/16 07:28:00;;;;;;;4.57;3.22;;;23.00;89.10;;;23.61;81.78;100611.09;5027315;28;20038;-74
2022/06/16 07:30:28;;;;;;;5.78;3.53;;;23.10;89.20;;;23.73;80.08;100611.13;5043415;28;20082;-73
2022/06/16 07:32:55;;;;;;;6.50;3.88;;;23.20;88.90;;;23.83;77.86;100620.19;5042482;28;20045;-74
2022/06/16 07:35:23;;;;;;;4.88;3.58;;;23.30;88.10;;;23.88;75.39;100620.72;5027504;28;20061;-75
2022/06/16 07:37:50;;;;;;;5.93;3.97;;;23.40;87.30;;;23.90;74.76;100620.56;5028448;28;20041;-73
2022/06/16 07:40:19;;;;;;;10.77;3.85;;;23.40;87.00;;;24.01;75.85;100617.91;5026480;28;20053;-74
2022/06/16 07:42:47;;;;;;;5.10;3.50;;;23.50;87.10;;;24.08;73.85;100615.66;5027324;28;20044;-76
2022/06/16 07:45:14;;;;;;;5.05;3.63;;;23.60;86.60;;;24.10;76.33;100612.81;5028328;28;20041;-75
2022/06/16 07:47:42;;;;;;;4.72;3.13;;;23.60;87.00;;;24.13;73.51;100610.75;5010802;28;20143;-74
2022/06/16 07:50:11;;;;;;;5.60;3.28;;;23.70;86.40;;;24.16;73.70;100623.13;5026659;28;20045;-74
2022/06/16 07:52:38;;;;;;;8.15;3.63;;;23.70;86.10;;;24.25;70.88;100622.38;5027309;28;20398;-75
2022/06/16 07:55:07;;;;;;;7.05;3.63;;;23.70;85.50;;;24.21;70.42;100629.84;5026324;28;20038;-75
2022/06/16 07:57:45;;;;;;;8.38;3.35;;;23.80;85.10;;;24.29;70.28;100623.88;5027038;28;20042;-75
2022/06/16 08:00:21;;;;;;;6.38;3.30;;;23.90;85.10;;;24.32;69.42;100623.63;5026661;28;20513;-75
2022/06/16 08:02:48;;;;;;;4.45;3.47;;;23.90;84.70;;;24.42;68.98;100625.59;5011438;28;20042;-75
2022/06/16 08:05:22;;;;;;;11.02;3.88;;;23.90;84.60;;;24.44;68.46;100629.88;5027111;28;20545;-76
2022/06/16 08:07:50;;;;;;;5.82;3.20;;;24.00;84.40;;;24.52;70.38;100625.75;5026756;28;20103;-77
2022/06/16 08:10:22;;;;;;;7.35;3.67;;;24.00;84.90;;;24.67;70.04;100629.03;5027280;28;20046;-77
2022/06/16 08:12:49;;;;;;;6.85;3.58;;;24.10;84.70;;;24.63;66.24;100633.78;5024024;28;20072;-77
2022/06/16 08:15:17;;;;;;;5.72;3.50;;;24.20;83.60;;;24.67;67.01;100629.91;4974985;28;20471;-78
2022/06/16 08:17:49;;;;;;;4.30;3.05;;;24.20;83.80;;;24.78;67.40;100637.13;5007276;28;20046;-76
2022/06/16 08:20:19;;;;;;;7.55;3.25;;;24.20;83.90;;;24.82;61.18;100638.59;4978980;28;20136;-77
2022/06/16 08:22:46;;;;;;;7.95;3.70;;;24.30;82.10;;;24.86;62.16;100634.66;4997514;28;20034;-78
2022/06/16 08:25:15;;;;;;;7.45;3.20;;;24.40;82.20;;;24.98;65.23;100637.34;5024693;28;20042;-78
2022/06/16 08:27:47;;;;;;;4.33;2.50;;;24.40;83.10;;;25.03;62.65;100637.81;5014005;28;20034;-78
2022/06/16 08:30:17;;;;;;;4.82;2.92;;;24.40;82.30;;;25.05;58.53;100638.56;5011374;28;20150;-78
2022/06/16 08:32:51;;;;;;;7.80;3.20;;;24.50;81.10;;;25.16;57.56;100645.78;4993492;28;20483;-77
2022/06/16 08:35:18;;;;;;;5.43;2.90;;;24.60;80.60;;;25.19;58.95;100651.75;5007640;28;20041;-77
2022/06/16 08:37:45;;;;;;;3.20;2.55;;;24.60;80.70;;;25.17;56.90;100651.03;4990989;28;20491;-75
2022/06/16 08:40:14;;;;;;;5.90;3.83;;;24.70;79.80;;;25.27;58.64;100653.81;5009536;28;20030;-78
2022/06/16 08:43:08;;;;;;;12.77;3.33;;;24.80;80.20;;;25.39;56.88;100654.66;4989579;28;20443;-77
2022/06/16 08:45:41;;;;;;;5.97;2.90;;;24.80;79.40;;;25.43;57.66;100666.88;5024894;28;20057;-78
2022/06/16 08:49:04;;;;;;;4.80;3.20;;;24.90;79.80;;;25.54;57.74;100666.03;4991628;28;20049;-78
2022/06/16 08:51:46;;;;;;;6.03;3.17;;;24.90;79.70;;;25.57;54.81;100675.69;5029126;28;20109;-80
2022/06/16 08:54:40;;;;;;;5.63;3.33;;;25.00;78.30;;;25.66;53.84;100684.84;5029097;28;20578;-78
2022/06/16 08:57:15;;;;;;;5.28;3.20;;;25.10;78.60;;;25.73;53.05;100691.44;5008784;28;20064;-79
2022/06/16 09:00:01;;;;;;;6.13;3.10;;;25.20;77.40;;;25.75;53.18;100689.44;5015220;28;20127;-78
2022/06/16 09:02:41;;;;;;;5.80;2.97;;;25.20;76.70;;;25.83;52.45;100683.41;5010552;28;20050;-79
2022/06/16 09:05:42;;;;;;;5.20;3.00;;;25.30;77.20;;;25.95;51.34;100687.78;5016050;28;20140;-80
2022/06/16 09:08:50;;;;;;;6.82;2.95;;;25.30;76.30;;;26.02;50.76;100689.00;5029016;28;20046;-79
2022/06/16 09:11:52;;;;;;;5.72;2.85;;;25.30;76.20;;;26.06;51.12;100689.56;4996545;28;20053;-78
2022/06/16 09:15:14;;;;;;;6.55;3.05;;;25.50;75.70;;;26.15;51.42;100696.88;5027676;28;20140;-79
2022/06/16 09:17:58;;;;;;;4.88;2.83;;;25.50;75.70;;;26.20;49.51;100693.84;4952309;28;20074;-79
2022/06/16 09:20:45;;;;;;;6.55;3.30;;;25.60;75.00;;;26.25;48.68;100688.88;5008167;28;20042;-80
2022/06/16 09:24:05;;;;;;;8.75;3.80;;;25.70;74.50;;;26.34;49.09;100695.34;5009835;28;20127;-79
2022/06/16 09:27:13;;;;;;;5.95;3.15;;;25.70;74.70;;;26.35;48.18;100696.19;4996746;28;20541;-80
2022/06/16 09:29:56;;;;;;;5.80;3.10;;;25.80;73.50;;;26.31;46.70;100687.50;4997039;28;20116;-79
2022/06/16 09:32:30;;;;;;;5.60;3.53;;;25.90;72.40;;;26.39;47.22;100694.94;5009814;28;20503;-80
2022/06/16 09:35:18;;;;;;;6.75;3.03;;;25.90;72.60;;;26.46;47.14;100688.88;5009358;28;20099;-78
2022/06/16 09:38:22;;;;;;;6.78;3.15;;;25.90;72.50;;;26.58;44.33;100689.66;5005615;28;20496;-78
2022/06/16 09:44:10;;;;;;;4.20;2.70;;;26.10;69.80;;;26.67;43.86;100700.66;5031883;28;20041;-79
2022/06/16 09:46:47;;;;;;;7.03;3.75;;;26.10;69.70;;;26.76;42.54;100691.72;5016476;28;20151;-79
2022/06/16 09:49:25;;;;;;;7.75;2.80;;;26.20;68.80;;;26.89;42.85;100694.25;5031476;28;20512;-79
2022/06/16 09:52:47;;;;;;;3.90;2.42;;;26.20;68.90;;;27.01;42.97;100695.00;5014337;28;20486;-78
2022/06/16 09:55:38;;;;;;;6.78;2.80;;;26.30;68.90;;;27.04;41.66;100692.88;5032916;28;20057;-78
2022/06/16 09:58:38;;;;;;;5.75;2.80;;;26.40;67.70;;;27.08;40.93;100698.84;5016795;28;20057;-78
2022/06/16 10:01:10;;;;;;;5.00;2.97;;;26.50;66.90;;;27.10;40.23;100693.31;5007351;28;20052;-78
2022/06/16 10:03:46;;;;;;;6.85;2.92;;;26.60;65.80;;;27.23;40.14;100703.88;5017418;28;20200;-82
2022/06/16 10:06:42;;;;;;;4.88;2.83;;;26.60;65.70;;;27.24;39.54;100697.47;5018593;28;20502;-79
2022/06/16 10:09:32;;;;;;;5.15;2.88;;;26.70;64.60;;;27.39;39.51;100708.75;5035293;28;20069;-80
2022/06/16 10:12:30;;;;;;;8.88;2.92;;;26.80;64.70;;;27.48;39.23;100713.34;5033439;28;20130;-82
2022/06/16 10:15:18;;;;;;;4.70;2.70;;;26.80;64.20;;;27.49;39.50;100717.75;5031319;28;20041;-78
2022/06/16 10:17:48;;;;;;;4.90;2.63;;;26.90;64.20;;;27.59;40.64;100717.78;5030192;28;20480;-78
2022/06/16 10:20:20;;;;;;;5.10;2.80;;;26.90;65.30;;;27.61;38.82;100715.78;5030227;28;20099;-78
2022/06/16 10:23:11;;;;;;;6.38;2.63;;;27.10;63.40;;;27.74;39.16;100716.38;5047711;28;20120;-78
2022/06/16 10:25:55;;;;;;;6.45;3.50;;;27.10;63.80;;;27.72;39.27;100720.22;5019284;28;20065;-76
2022/06/16 10:28:48;;;;;;;5.60;3.20;;;27.20;63.60;;;27.83;38.61;100725.50;5036479;28;20046;-77
2022/06/16 10:31:35;;;;;;;3.53;2.70;;;27.20;63.00;;;28.05;37.77;100723.50;5018832;28;20081;-77
2022/06/16 10:34:04;;;;;;;8.23;3.40;;;26.70;61.70;;;28.11;39.40;100738.31;5017093;28;20084;-75
2022/06/16 10:36:32;;;;;;;7.65;3.28;;;27.40;63.60;;;28.06;38.85;100736.03;5042378;28;20053;-77
2022/06/16 10:39:24;;;;;;;4.43;2.67;;;27.50;63.10;;;28.11;39.35;100741.88;5006531;28;20502;-77
2022/06/16 10:42:06;;;;;;;8.35;2.85;;;27.50;63.00;;;28.23;38.96;100742.59;5013377;28;20145;-77
2022/06/16 10:44:34;;;;;;;5.97;2.90;;;27.60;63.10;;;28.28;39.49;100734.06;5013505;28;20490;-77
2022/06/16 10:47:06;;;;;;;8.57;2.80;;;27.70;63.60;;;28.37;38.75;100743.16;5028623;28;20060;-77
2022/06/16 10:49:39;;;;;;;6.30;3.10;;;27.70;62.60;;;28.50;38.76;100754.53;5028664;28;20099;-76
2022/06/16 10:52:20;;;;;;;9.25;2.80;;;27.80;63.50;;;28.58;38.35;100756.53;5025150;28;20045;-78
2022/06/16 10:55:21;;;;;;;3.83;2.55;;;27.90;62.10;;;28.64;38.70;100755.91;5009375;28;20042;-76
2022/06/16 10:58:16;;;;;;;3.25;2.70;;;28.00;62.70;;;28.72;38.98;100750.66;5008858;28;20046;-78
2022/06/16 11:00:58;;;;;;;4.13;2.85;;;28.00;62.80;;;28.86;38.17;100745.75;5008683;28;20042;-78
2022/06/16 11:03:25;;;;;;;5.97;2.63;;;28.10;61.90;;;28.95;38.37;100746.72;4994667;28;20406;-77
2022/06/16 11:05:58;;;;;;;4.82;3.00;;;28.20;62.10;;;29.04;36.99;100743.13;5007593;28;20064;-78
2022/06/16 11:08:39;;;;;;;4.78;2.47;;;28.30;61.00;;;29.00;37.46;100744.44;4992018;28;20049;-78
2022/06/16 11:11:52;;;;;;;7.75;3.17;;;28.40;60.70;;;29.22;36.65;100748.63;5009946;28;20127;-77
2022/06/16 11:14:27;;;;;;;4.38;2.80;;;28.50;60.30;;;29.45;36.56;100747.41;5008820;28;20511;-78
2022/06/16 11:16:55;;;;;;;8.48;2.70;;;28.60;60.30;;;29.46;36.37;100751.81;5008358;28;20053;-77
2022/06/16 11:19:46;;;;;;;7.85;2.80;;;28.70;59.70;;;29.50;36.11;100759.47;5008095;28;20073;-77